Repto Horizonte, Puerto Rico
Current Conditions -  °F | °C
As of 4:53 AM on Sunday 23 Nov 2014 (Local Time) from TJNR Reporting Station
Clear Clear  
Wind Chill: 80°   Ceiling: Unl
Heat Index: 84°   Visibility: 10mi
Dew Point: 71°   Wind: 10mph
Humidity: 74%   Direction: 100°E
Pressure: 30"   Gusts: NA
Location:  18.0547°N, 65.8738°W
Report Text: TJNR 230853Z AUTO 10009KT 10SM CLR 27/22 A3000 RMK AO2 SLP160 T02670217 55004 $
Loading
Personal Weather Stations






























Interactive Weather Map New forecast layout! Learn more

10-Day Weather Forecast

Advertisements
Track Severe Weather on mobile